Edon, OH (43518)

11:39 PM EDT on August 22, 2014 (GMT -0400)
Bridgewater | Change Station
CLOSE
Current Station
Personal Weather Station
Location: Montpelier, OH
Elevation: 899 ft
Nearby Weather Stations

Elev 899 ft 41.63 °N, 84.66 °W | Updated 19 seconds ago

Partly Cloudy
Partly Cloudy
71.8 °F
Feels Like 71.8 °F
N
0.0
Wind Variable Wind from ENE
Gusts 0.0 mph

Today
High -- | Low -- °F
--% Chance of Precip.
Yesterday
High -- | Low -- °F
Precip. -- in
6:54 AM 8:28 PM
Waning Crescent, 5% visible
Pressure 30.01 in
Visibility 8.0 miles
Clouds Few 6000 ft
Dew Point 70 °F
Humidity 95%
Rainfall 0.00 in
Snow Depth Not available.
UV 12.8 out of 12
Pollen 7.00 out of 12
Air Quality Not available.
Flu Activity Not available.
METAR KANQ 230355Z AUTO 00000KT 8SM FEW060 23/18 A3001 RMK

More Conditions Fewer Conditions

Pressure 30.01 in
Visibility 8.0 miles
Clouds Few 6000 ft
Dew Point 70 °F
Humidity 95%
Rainfall 0.00 in
Snow Depth Not available.
UV 12.8 out of 12
Pollen 7.00 out of 12
Air Quality Not available.
Flu Activity Not available.
METAR KANQ 230355Z AUTO 00000KT 8SM FEW060 23/18 A3001 RMK

More Conditions Fewer Conditions

10-Day Weather Forecast

Almanac

Astronomy

Aug. 22, 2014 Rise Set
Actual Time 6:54 AM EDT 8:28 PM EDT
Civil Twilight 6:25 AM EDT 8:57 PM EDT
Nautical Twilight 5:50 AM EDT 9:32 PM EDT
Astronomical Twilight 5:12 AM EDT 10:09 PM EDT
Moon 4:15 AM EDT (8/22) 6:36 PM EDT (8/22)
Length of Visible Light 14h 31m
Length of Day
13h 33m
Tomorrow will be 2m 33s shorter.
Waning Crescent, 5% of the Moon is Illuminated
Today
Waning Crescent
Aug 25
New
Sep 2
First Quarter
Sep 8
Full
Sep 15
Last Quarter

Today's Extremes

State Highs State Lows

Community

WunderPhotos

Upload Photos

1,746,352 photos uploaded!

WunderBlogs® & News

Nearby

Snow Depth

Station Depth Elevation
No new snow has been reported.

Earthquake Activity

City Distance Mag. Time & Date
No recent earthquake activity has been reported nearby.
Minimum magnitude displayed is 2.5.

Coastal Water Temperatures

Place Temperature
No Stations Reporting

Nearby Weather Stations